Airport ID:KRTS
Update Time (UTC):18 MAR 18 03:38
Wind Speed (Knots):CALM
Wind Direction (Magnetic):
Temperature (°C):-4
Dew Point (°C):-5
Humidity (%):91
Altimeter (inHg):29.99
Density Altitude (Feet):
Visibility (Miles):10
Clouds (Hundreds of feet):FEW042
METAR:METAR KRTS 180335Z AUTO 00000KT 10SM FEW042 M04/M05 A2999 RMK AO2

The data displayed is for advisory purposes only and is not to be used for flight planning or operations.

This page is not automatically refreshed. Reload the page to see current data.